sensor_id;sensor_type;location;lat;lon;timestamp;P1;durP1;ratioP1;P2;durP2;ratioP2
63312;SDS011;49442;45.640;13.812;2023-05-10T00:00:57;2.72;;;2.22;;
63312;SDS011;49442;45.640;13.812;2023-05-10T00:03:23;3.92;;;2.92;;
63312;SDS011;49442;45.640;13.812;2023-05-10T00:05:49;5.68;;;2.97;;
63312;SDS011;49442;45.640;13.812;2023-05-10T00:08:15;3.75;;;2.67;;
63312;SDS011;49442;45.640;13.812;2023-05-10T00:10:40;3.60;;;2.38;;
63312;SDS011;49442;45.640;13.812;2023-05-10T00:13:06;5.82;;;2.88;;
63312;SDS011;49442;45.640;13.812;2023-05-10T00:15:32;7.60;;;2.65;;
63312;SDS011;49442;45.640;13.812;2023-05-10T00:17:57;5.13;;;2.70;;
63312;SDS011;49442;45.640;13.812;2023-05-10T00:20:23;5.32;;;3.00;;
63312;SDS011;49442;45.640;13.812;2023-05-10T00:22:49;4.65;;;2.58;;
63312;SDS011;49442;45.640;13.812;2023-05-10T00:25:14;8.68;;;3.15;;
63312;SDS011;49442;45.640;13.812;2023-05-10T00:27:40;3.47;;;2.45;;
63312;SDS011;49442;45.640;13.812;2023-05-10T00:30:06;4.55;;;2.78;;
63312;SDS011;49442;45.640;13.812;2023-05-10T00:32:32;5.68;;;3.38;;
63312;SDS011;49442;45.640;13.812;2023-05-10T00:34:58;3.83;;;2.83;;
63312;SDS011;49442;45.640;13.812;2023-05-10T00:37:24;8.50;;;2.70;;
63312;SDS011;49442;45.640;13.812;2023-05-10T00:39:49;3.85;;;2.85;;
63312;SDS011;49442;45.640;13.812;2023-05-10T00:42:15;4.43;;;3.00;;
63312;SDS011;49442;45.640;13.812;2023-05-10T00:44:41;4.18;;;3.20;;
63312;SDS011;49442;45.640;13.812;2023-05-10T00:47:07;6.78;;;2.83;;
63312;SDS011;49442;45.640;13.812;2023-05-10T00:49:33;2.88;;;2.55;;
63312;SDS011;49442;45.640;13.812;2023-05-10T00:52:00;3.90;;;2.70;;
63312;SDS011;49442;45.640;13.812;2023-05-10T00:54:27;3.40;;;2.60;;
63312;SDS011;49442;45.640;13.812;2023-05-10T00:56:52;5.53;;;2.70;;
63312;SDS011;49442;45.640;13.812;2023-05-10T00:59:18;9.77;;;3.15;;
63312;SDS011;49442;45.640;13.812;2023-05-10T01:01:45;3.28;;;2.50;;
63312;SDS011;49442;45.640;13.812;2023-05-10T01:04:14;3.00;;;2.20;;
63312;SDS011;49442;45.640;13.812;2023-05-10T01:06:40;5.97;;;3.05;;
63312;SDS011;49442;45.640;13.812;2023-05-10T01:09:07;3.55;;;2.67;;
63312;SDS011;49442;45.640;13.812;2023-05-10T01:11:36;3.60;;;2.53;;
63312;SDS011;49442;45.640;13.812;2023-05-10T01:14:03;9.05;;;3.10;;
63312;SDS011;49442;45.640;13.812;2023-05-10T01:16:31;3.58;;;2.78;;
63312;SDS011;49442;45.640;13.812;2023-05-10T01:19:00;6.15;;;2.78;;
63312;SDS011;49442;45.640;13.812;2023-05-10T01:32:21;3.03;;;2.72;;
63312;SDS011;49442;45.640;13.812;2023-05-10T01:43:00;3.70;;;2.92;;
63312;SDS011;49442;45.640;13.812;2023-05-10T01:48:07;3.47;;;2.45;;
63312;SDS011;49442;45.640;13.812;2023-05-10T01:50:36;5.55;;;2.92;;
63312;SDS011;49442;45.640;13.812;2023-05-10T01:53:06;4.80;;;2.78;;
63312;SDS011;49442;45.640;13.812;2023-05-10T01:55:34;6.35;;;3.08;;
63312;SDS011;49442;45.640;13.812;2023-05-10T01:58:07;3.53;;;2.92;;
63312;SDS011;49442;45.640;13.812;2023-05-10T02:00:35;4.68;;;2.92;;
63312;SDS011;49442;45.640;13.812;2023-05-10T02:03:05;3.53;;;2.85;;
63312;SDS011;49442;45.640;13.812;2023-05-10T02:05:32;5.82;;;2.78;;
63312;SDS011;49442;45.640;13.812;2023-05-10T02:07:59;6.22;;;3.08;;
63312;SDS011;49442;45.640;13.812;2023-05-10T02:10:27;4.82;;;3.13;;
63312;SDS011;49442;45.640;13.812;2023-05-10T02:12:54;4.80;;;3.20;;
63312;SDS011;49442;45.640;13.812;2023-05-10T02:15:23;4.20;;;3.25;;
63312;SDS011;49442;45.640;13.812;2023-05-10T02:17:50;3.70;;;2.70;;
63312;SDS011;49442;45.640;13.812;2023-05-10T02:20:20;3.92;;;2.88;;
63312;SDS011;49442;45.640;13.812;2023-05-10T02:22:47;5.70;;;3.10;;
63312;SDS011;49442;45.640;13.812;2023-05-10T02:25:15;6.90;;;2.83;;
63312;SDS011;49442;45.640;13.812;2023-05-10T02:27:42;3.35;;;2.80;;
63312;SDS011;49442;45.640;13.812;2023-05-10T02:30:09;6.32;;;3.08;;
63312;SDS011;49442;45.640;13.812;2023-05-10T02:32:36;4.93;;;2.88;;
63312;SDS011;49442;45.640;13.812;2023-05-10T02:35:03;3.95;;;3.08;;
63312;SDS011;49442;45.640;13.812;2023-05-10T02:37:30;4.38;;;3.40;;
63312;SDS011;49442;45.640;13.812;2023-05-10T02:39:58;4.35;;;3.58;;
63312;SDS011;49442;45.640;13.812;2023-05-10T02:42:27;9.07;;;3.40;;
63312;SDS011;49442;45.640;13.812;2023-05-10T02:47:24;6.07;;;3.00;;
63312;SDS011;49442;45.640;13.812;2023-05-10T02:49:50;4.20;;;3.22;;
63312;SDS011;49442;45.640;13.812;2023-05-10T02:52:18;4.40;;;3.22;;
63312;SDS011;49442;45.640;13.812;2023-05-10T02:54:49;4.93;;;4.13;;
63312;SDS011;49442;45.640;13.812;2023-05-10T02:57:17;4.20;;;3.08;;
63312;SDS011;49442;45.640;13.812;2023-05-10T02:59:51;5.00;;;2.97;;
63312;SDS011;49442;45.640;13.812;2023-05-10T03:02:17;4.00;;;3.13;;
63312;SDS011;49442;45.640;13.812;2023-05-10T03:04:42;5.50;;;2.92;;
63312;SDS011;49442;45.640;13.812;2023-05-10T03:07:08;5.43;;;3.60;;
63312;SDS011;49442;45.640;13.812;2023-05-10T03:09:34;4.65;;;3.40;;
63312;SDS011;49442;45.640;13.812;2023-05-10T03:12:02;4.53;;;3.40;;
63312;SDS011;49442;45.640;13.812;2023-05-10T03:14:49;4.40;;;3.60;;
63312;SDS011;49442;45.640;13.812;2023-05-10T03:19:57;7.30;;;3.75;;
63312;SDS011;49442;45.640;13.812;2023-05-10T03:22:32;7.15;;;3.17;;
63312;SDS011;49442;45.640;13.812;2023-05-10T03:25:08;4.95;;;3.58;;
63312;SDS011;49442;45.640;13.812;2023-05-10T03:27:37;5.70;;;3.53;;
63312;SDS011;49442;45.640;13.812;2023-05-10T03:30:07;3.50;;;3.20;;
63312;SDS011;49442;45.640;13.812;2023-05-10T03:32:35;5.50;;;3.40;;
63312;SDS011;49442;45.640;13.812;2023-05-10T03:35:05;6.43;;;4.40;;
63312;SDS011;49442;45.640;13.812;2023-05-10T03:37:35;5.07;;;3.42;;
63312;SDS011;49442;45.640;13.812;2023-05-10T03:40:01;5.80;;;3.42;;
63312;SDS011;49442;45.640;13.812;2023-05-10T03:42:27;5.85;;;3.22;;
63312;SDS011;49442;45.640;13.812;2023-05-10T03:44:53;6.72;;;3.70;;
63312;SDS011;49442;45.640;13.812;2023-05-10T03:47:19;4.85;;;3.38;;
63312;SDS011;49442;45.640;13.812;2023-05-10T03:49:45;4.68;;;3.85;;
63312;SDS011;49442;45.640;13.812;2023-05-10T03:52:10;5.85;;;3.78;;
63312;SDS011;49442;45.640;13.812;2023-05-10T03:54:36;7.15;;;3.50;;
63312;SDS011;49442;45.640;13.812;2023-05-10T03:57:02;8.88;;;3.00;;
63312;SDS011;49442;45.640;13.812;2023-05-10T03:59:28;8.27;;;3.65;;
63312;SDS011;49442;45.640;13.812;2023-05-10T04:01:54;8.52;;;3.70;;
63312;SDS011;49442;45.640;13.812;2023-05-10T04:04:20;5.20;;;3.15;;
63312;SDS011;49442;45.640;13.812;2023-05-10T04:06:47;5.55;;;3.65;;
63312;SDS011;49442;45.640;13.812;2023-05-10T04:09:12;10.13;;;3.60;;
63312;SDS011;49442;45.640;13.812;2023-05-10T04:11:38;4.88;;;3.53;;
63312;SDS011;49442;45.640;13.812;2023-05-10T04:14:04;4.90;;;3.33;;
63312;SDS011;49442;45.640;13.812;2023-05-10T04:16:30;3.60;;;3.25;;
63312;SDS011;49442;45.640;13.812;2023-05-10T04:18:55;5.47;;;3.50;;
63312;SDS011;49442;45.640;13.812;2023-05-10T04:21:22;7.50;;;3.17;;
63312;SDS011;49442;45.640;13.812;2023-05-10T04:23:48;4.60;;;3.47;;
63312;SDS011;49442;45.640;13.812;2023-05-10T04:26:14;5.03;;;3.60;;
63312;SDS011;49442;45.640;13.812;2023-05-10T04:28:39;6.22;;;3.42;;
63312;SDS011;49442;45.640;13.812;2023-05-10T04:31:06;10.43;;;3.70;;
63312;SDS011;49442;45.640;13.812;2023-05-10T04:33:33;4.43;;;3.42;;
63312;SDS011;49442;45.640;13.812;2023-05-10T04:35:59;4.78;;;3.35;;
63312;SDS011;49442;45.640;13.812;2023-05-10T04:38:25;6.18;;;3.15;;
63312;SDS011;49442;45.640;13.812;2023-05-10T04:40:52;6.03;;;3.22;;
63312;SDS011;49442;45.640;13.812;2023-05-10T04:43:18;4.82;;;3.13;;
63312;SDS011;49442;45.640;13.812;2023-05-10T04:45:43;4.57;;;3.10;;
63312;SDS011;49442;45.640;13.812;2023-05-10T04:48:09;3.75;;;3.33;;
63312;SDS011;49442;45.640;13.812;2023-05-10T04:50:35;4.75;;;3.40;;
63312;SDS011;49442;45.640;13.812;2023-05-10T04:53:01;6.30;;;3.60;;
63312;SDS011;49442;45.640;13.812;2023-05-10T04:55:27;4.85;;;3.50;;
63312;SDS011;49442;45.640;13.812;2023-05-10T04:57:53;4.75;;;3.72;;
63312;SDS011;49442;45.640;13.812;2023-05-10T05:00:21;6.68;;;4.70;;
63312;SDS011;49442;45.640;13.812;2023-05-10T05:02:47;6.95;;;3.42;;
63312;SDS011;49442;45.640;13.812;2023-05-10T05:05:13;8.68;;;3.70;;
63312;SDS011;49442;45.640;13.812;2023-05-10T05:07:39;5.68;;;4.03;;
63312;SDS011;49442;45.640;13.812;2023-05-10T05:10:05;4.35;;;3.83;;
63312;SDS011;49442;45.640;13.812;2023-05-10T05:12:32;4.55;;;3.35;;
63312;SDS011;49442;45.640;13.812;2023-05-10T05:14:58;5.43;;;3.70;;
63312;SDS011;49442;45.640;13.812;2023-05-10T05:17:23;5.00;;;3.42;;
63312;SDS011;49442;45.640;13.812;2023-05-10T05:19:49;5.03;;;3.63;;
63312;SDS011;49442;45.640;13.812;2023-05-10T05:22:15;5.10;;;3.40;;
63312;SDS011;49442;45.640;13.812;2023-05-10T05:24:41;5.90;;;3.70;;
63312;SDS011;49442;45.640;13.812;2023-05-10T05:27:06;6.78;;;3.90;;
63312;SDS011;49442;45.640;13.812;2023-05-10T05:29:32;7.28;;;3.90;;
63312;SDS011;49442;45.640;13.812;2023-05-10T05:31:58;4.50;;;3.20;;
63312;SDS011;49442;45.640;13.812;2023-05-10T05:34:24;5.88;;;4.03;;
63312;SDS011;49442;45.640;13.812;2023-05-10T05:36:50;5.85;;;3.88;;
63312;SDS011;49442;45.640;13.812;2023-05-10T05:39:16;6.70;;;3.85;;
63312;SDS011;49442;45.640;13.812;2023-05-10T05:41:42;4.38;;;3.55;;
63312;SDS011;49442;45.640;13.812;2023-05-10T05:44:08;5.68;;;4.10;;
63312;SDS011;49442;45.640;13.812;2023-05-10T05:46:35;6.13;;;4.32;;
63312;SDS011;49442;45.640;13.812;2023-05-10T05:49:00;7.40;;;3.92;;
63312;SDS011;49442;45.640;13.812;2023-05-10T05:51:26;4.63;;;4.05;;
63312;SDS011;49442;45.640;13.812;2023-05-10T05:53:52;5.55;;;3.45;;
63312;SDS011;49442;45.640;13.812;2023-05-10T05:56:18;8.80;;;4.57;;
63312;SDS011;49442;45.640;13.812;2023-05-10T05:58:49;10.00;;;4.97;;
63312;SDS011;49442;45.640;13.812;2023-05-10T06:01:15;4.20;;;3.80;;
63312;SDS011;49442;45.640;13.812;2023-05-10T06:03:41;6.07;;;3.97;;
63312;SDS011;49442;45.640;13.812;2023-05-10T06:06:07;6.25;;;3.88;;
63312;SDS011;49442;45.640;13.812;2023-05-10T06:08:33;4.47;;;3.70;;
63312;SDS011;49442;45.640;13.812;2023-05-10T06:10:59;4.82;;;3.20;;
63312;SDS011;49442;45.640;13.812;2023-05-10T06:13:25;5.85;;;3.85;;
63312;SDS011;49442;45.640;13.812;2023-05-10T06:15:57;5.53;;;4.25;;
63312;SDS011;49442;45.640;13.812;2023-05-10T06:18:26;4.95;;;3.55;;
63312;SDS011;49442;45.640;13.812;2023-05-10T06:20:52;5.28;;;3.95;;
63312;SDS011;49442;45.640;13.812;2023-05-10T06:23:17;4.38;;;3.75;;
63312;SDS011;49442;45.640;13.812;2023-05-10T06:25:47;4.20;;;3.38;;
63312;SDS011;49442;45.640;13.812;2023-05-10T06:28:13;5.90;;;3.90;;
63312;SDS011;49442;45.640;13.812;2023-05-10T06:30:39;5.32;;;3.83;;
63312;SDS011;49442;45.640;13.812;2023-05-10T06:33:05;5.68;;;3.85;;
63312;SDS011;49442;45.640;13.812;2023-05-10T06:35:32;5.72;;;3.70;;
63312;SDS011;49442;45.640;13.812;2023-05-10T06:37:58;7.25;;;3.95;;
63312;SDS011;49442;45.640;13.812;2023-05-10T06:40:24;6.20;;;3.92;;
63312;SDS011;49442;45.640;13.812;2023-05-10T06:42:50;4.90;;;4.22;;
63312;SDS011;49442;45.640;13.812;2023-05-10T06:45:16;4.30;;;3.70;;
63312;SDS011;49442;45.640;13.812;2023-05-10T06:47:42;3.97;;;3.30;;
63312;SDS011;49442;45.640;13.812;2023-05-10T06:50:08;7.55;;;4.22;;
63312;SDS011;49442;45.640;13.812;2023-05-10T06:52:34;9.48;;;4.22;;
63312;SDS011;49442;45.640;13.812;2023-05-10T06:55:00;5.22;;;4.20;;
63312;SDS011;49442;45.640;13.812;2023-05-10T06:57:26;7.70;;;3.95;;
63312;SDS011;49442;45.640;13.812;2023-05-10T06:59:52;5.57;;;3.80;;
63312;SDS011;49442;45.640;13.812;2023-05-10T07:02:18;4.82;;;3.75;;
63312;SDS011;49442;45.640;13.812;2023-05-10T07:04:43;7.57;;;3.60;;
63312;SDS011;49442;45.640;13.812;2023-05-10T07:07:11;6.03;;;4.35;;
63312;SDS011;49442;45.640;13.812;2023-05-10T07:09:38;4.97;;;3.70;;
63312;SDS011;49442;45.640;13.812;2023-05-10T07:12:04;5.60;;;4.00;;
63312;SDS011;49442;45.640;13.812;2023-05-10T07:14:30;6.93;;;4.35;;
63312;SDS011;49442;45.640;13.812;2023-05-10T07:16:55;7.07;;;4.47;;
63312;SDS011;49442;45.640;13.812;2023-05-10T07:19:21;5.32;;;4.28;;
63312;SDS011;49442;45.640;13.812;2023-05-10T07:21:47;8.63;;;4.70;;
63312;SDS011;49442;45.640;13.812;2023-05-10T07:24:13;6.55;;;3.63;;
63312;SDS011;49442;45.640;13.812;2023-05-10T07:26:38;7.68;;;4.57;;
63312;SDS011;49442;45.640;13.812;2023-05-10T07:29:04;8.65;;;5.05;;
63312;SDS011;49442;45.640;13.812;2023-05-10T07:31:30;6.68;;;4.75;;
63312;SDS011;49442;45.640;13.812;2023-05-10T07:33:56;9.60;;;4.40;;
63312;SDS011;49442;45.640;13.812;2023-05-10T07:36:21;6.22;;;4.07;;
63312;SDS011;49442;45.640;13.812;2023-05-10T07:38:47;6.03;;;4.05;;
63312;SDS011;49442;45.640;13.812;2023-05-10T07:41:14;6.20;;;4.18;;
63312;SDS011;49442;45.640;13.812;2023-05-10T07:43:40;7.40;;;4.15;;
63312;SDS011;49442;45.640;13.812;2023-05-10T07:46:05;5.82;;;4.03;;
63312;SDS011;49442;45.640;13.812;2023-05-10T07:48:31;8.38;;;4.50;;
63312;SDS011;49442;45.640;13.812;2023-05-10T07:50:57;5.50;;;4.63;;
63312;SDS011;49442;45.640;13.812;2023-05-10T07:53:23;6.13;;;4.65;;
63312;SDS011;49442;45.640;13.812;2023-05-10T07:55:52;5.45;;;4.45;;
63312;SDS011;49442;45.640;13.812;2023-05-10T07:58:21;6.80;;;4.88;;
63312;SDS011;49442;45.640;13.812;2023-05-10T08:00:47;6.78;;;4.50;;
63312;SDS011;49442;45.640;13.812;2023-05-10T08:03:14;5.57;;;4.13;;
63312;SDS011;49442;45.640;13.812;2023-05-10T08:05:39;5.80;;;4.72;;
63312;SDS011;49442;45.640;13.812;2023-05-10T08:08:05;6.03;;;4.68;;
63312;SDS011;49442;45.640;13.812;2023-05-10T08:10:31;9.68;;;4.90;;
63312;SDS011;49442;45.640;13.812;2023-05-10T08:12:57;5.97;;;4.45;;
63312;SDS011;49442;45.640;13.812;2023-05-10T08:15:25;7.72;;;4.28;;
63312;SDS011;49442;45.640;13.812;2023-05-10T08:17:51;6.85;;;4.85;;
63312;SDS011;49442;45.640;13.812;2023-05-10T08:20:17;6.97;;;4.28;;
63312;SDS011;49442;45.640;13.812;2023-05-10T08:22:45;6.65;;;4.53;;
63312;SDS011;49442;45.640;13.812;2023-05-10T08:25:10;6.97;;;4.65;;
63312;SDS011;49442;45.640;13.812;2023-05-10T08:27:36;5.18;;;4.22;;
63312;SDS011;49442;45.640;13.812;2023-05-10T08:30:02;5.82;;;4.40;;
63312;SDS011;49442;45.640;13.812;2023-05-10T08:32:28;7.55;;;4.53;;
63312;SDS011;49442;45.640;13.812;2023-05-10T08:34:54;10.27;;;4.63;;
63312;SDS011;49442;45.640;13.812;2023-05-10T08:37:21;7.97;;;5.03;;
63312;SDS011;49442;45.640;13.812;2023-05-10T08:39:48;5.95;;;4.60;;
63312;SDS011;49442;45.640;13.812;2023-05-10T08:42:13;8.18;;;5.15;;
63312;SDS011;49442;45.640;13.812;2023-05-10T08:44:44;8.10;;;5.65;;
63312;SDS011;49442;45.640;13.812;2023-05-10T08:47:13;9.18;;;5.72;;
63312;SDS011;49442;45.640;13.812;2023-05-10T08:49:41;7.80;;;6.28;;
63312;SDS011;49442;45.640;13.812;2023-05-10T08:52:12;9.93;;;6.15;;
63312;SDS011;49442;45.640;13.812;2023-05-10T08:54:41;9.95;;;6.57;;
63312;SDS011;49442;45.640;13.812;2023-05-10T08:57:07;8.27;;;5.97;;
63312;SDS011;49442;45.640;13.812;2023-05-10T08:59:33;11.38;;;6.50;;
63312;SDS011;49442;45.640;13.812;2023-05-10T09:01:59;11.13;;;7.47;;
63312;SDS011;49442;45.640;13.812;2023-05-10T09:04:27;10.55;;;7.18;;
63312;SDS011;49442;45.640;13.812;2023-05-10T09:06:53;8.48;;;7.13;;
63312;SDS011;49442;45.640;13.812;2023-05-10T09:09:19;10.73;;;6.43;;
63312;SDS011;49442;45.640;13.812;2023-05-10T09:11:46;12.68;;;7.50;;
63312;SDS011;49442;45.640;13.812;2023-05-10T09:14:12;8.80;;;6.63;;
63312;SDS011;49442;45.640;13.812;2023-05-10T09:16:40;10.00;;;7.93;;
63312;SDS011;49442;45.640;13.812;2023-05-10T09:19:06;8.65;;;6.68;;
63312;SDS011;49442;45.640;13.812;2023-05-10T09:21:34;8.68;;;7.40;;
63312;SDS011;49442;45.640;13.812;2023-05-10T09:24:05;10.43;;;6.85;;
63312;SDS011;49442;45.640;13.812;2023-05-10T09:26:31;13.05;;;7.85;;
63312;SDS011;49442;45.640;13.812;2023-05-10T09:28:58;10.90;;;9.10;;
63312;SDS011;49442;45.640;13.812;2023-05-10T09:31:25;13.50;;;8.70;;
63312;SDS011;49442;45.640;13.812;2023-05-10T09:34:22;12.45;;;7.70;;
63312;SDS011;49442;45.640;13.812;2023-05-10T09:36:55;10.40;;;7.88;;
63312;SDS011;49442;45.640;13.812;2023-05-10T09:41:58;13.93;;;8.43;;
63312;SDS011;49442;45.640;13.812;2023-05-10T09:44:28;8.32;;;7.15;;
63312;SDS011;49442;45.640;13.812;2023-05-10T09:46:55;11.27;;;7.57;;
63312;SDS011;49442;45.640;13.812;2023-05-10T09:49:21;9.15;;;7.47;;
63312;SDS011;49442;45.640;13.812;2023-05-10T09:51:47;8.82;;;6.50;;
63312;SDS011;49442;45.640;13.812;2023-05-10T09:54:22;10.70;;;7.93;;
63312;SDS011;49442;45.640;13.812;2023-05-10T09:56:49;9.43;;;7.10;;
63312;SDS011;49442;45.640;13.812;2023-05-10T09:59:14;8.43;;;6.43;;
63312;SDS011;49442;45.640;13.812;2023-05-10T10:01:42;8.30;;;6.60;;
63312;SDS011;49442;45.640;13.812;2023-05-10T10:04:15;9.07;;;8.02;;
63312;SDS011;49442;45.640;13.812;2023-05-10T10:06:41;9.10;;;7.55;;
63312;SDS011;49442;45.640;13.812;2023-05-10T10:09:08;8.15;;;7.30;;
63312;SDS011;49442;45.640;13.812;2023-05-10T10:11:34;11.05;;;7.85;;
63312;SDS011;49442;45.640;13.812;2023-05-10T10:14:02;12.20;;;8.80;;
63312;SDS011;49442;45.640;13.812;2023-05-10T10:16:28;9.80;;;7.43;;
63312;SDS011;49442;45.640;13.812;2023-05-10T10:18:55;15.52;;;10.85;;
63312;SDS011;49442;45.640;13.812;2023-05-10T10:21:21;8.65;;;7.53;;
63312;SDS011;49442;45.640;13.812;2023-05-10T10:23:48;13.50;;;9.30;;
63312;SDS011;49442;45.640;13.812;2023-05-10T10:26:14;11.15;;;9.23;;
63312;SDS011;49442;45.640;13.812;2023-05-10T10:34:06;13.88;;;11.85;;
63312;SDS011;49442;45.640;13.812;2023-05-10T10:36:40;8.93;;;7.22;;
63312;SDS011;49442;45.640;13.812;2023-05-10T10:39:11;11.43;;;7.22;;
63312;SDS011;49442;45.640;13.812;2023-05-10T10:41:56;10.80;;;6.60;;
63312;SDS011;49442;45.640;13.812;2023-05-10T10:49:28;10.18;;;6.38;;
63312;SDS011;49442;45.640;13.812;2023-05-10T10:52:13;10.20;;;7.32;;
63312;SDS011;49442;45.640;13.812;2023-05-10T10:54:40;10.57;;;7.72;;
63312;SDS011;49442;45.640;13.812;2023-05-10T10:57:17;12.55;;;8.38;;
63312;SDS011;49442;45.640;13.812;2023-05-10T10:59:44;9.70;;;8.18;;
63312;SDS011;49442;45.640;13.812;2023-05-10T11:02:10;10.88;;;8.13;;
63312;SDS011;49442;45.640;13.812;2023-05-10T11:05:00;11.00;;;7.68;;
63312;SDS011;49442;45.640;13.812;2023-05-10T11:07:58;10.77;;;8.43;;
63312;SDS011;49442;45.640;13.812;2023-05-10T11:10:25;12.65;;;8.65;;
63312;SDS011;49442;45.640;13.812;2023-05-10T11:17:56;12.07;;;8.65;;
63312;SDS011;49442;45.640;13.812;2023-05-10T11:20:22;10.77;;;8.73;;
63312;SDS011;49442;45.640;13.812;2023-05-10T11:22:50;13.75;;;9.05;;
63312;SDS011;49442;45.640;13.812;2023-05-10T11:25:20;13.07;;;8.52;;
63312;SDS011;49442;45.640;13.812;2023-05-10T11:27:51;9.75;;;8.23;;
63312;SDS011;49442;45.640;13.812;2023-05-10T11:30:17;11.57;;;9.00;;
63312;SDS011;49442;45.640;13.812;2023-05-10T11:32:43;14.30;;;9.20;;
63312;SDS011;49442;45.640;13.812;2023-05-10T11:35:12;12.27;;;8.93;;
63312;SDS011;49442;45.640;13.812;2023-05-10T11:37:41;8.75;;;7.47;;
63312;SDS011;49442;45.640;13.812;2023-05-10T11:40:08;9.30;;;7.80;;
63312;SDS011;49442;45.640;13.812;2023-05-10T11:42:38;11.95;;;8.50;;
63312;SDS011;49442;45.640;13.812;2023-05-10T11:45:04;10.30;;;7.57;;
63312;SDS011;49442;45.640;13.812;2023-05-10T11:47:31;12.65;;;7.53;;
63312;SDS011;49442;45.640;13.812;2023-05-10T11:49:57;9.55;;;8.55;;
63312;SDS011;49442;45.640;13.812;2023-05-10T11:52:23;13.60;;;7.45;;
63312;SDS011;49442;45.640;13.812;2023-05-10T11:54:52;10.98;;;7.32;;
63312;SDS011;49442;45.640;13.812;2023-05-10T11:57:19;10.05;;;7.53;;
63312;SDS011;49442;45.640;13.812;2023-05-10T11:59:53;11.25;;;8.10;;
63312;SDS011;49442;45.640;13.812;2023-05-10T12:02:21;8.50;;;7.40;;
63312;SDS011;49442;45.640;13.812;2023-05-10T12:04:47;11.65;;;7.80;;
63312;SDS011;49442;45.640;13.812;2023-05-10T12:07:13;10.13;;;6.85;;
63312;SDS011;49442;45.640;13.812;2023-05-10T12:10:24;8.07;;;6.30;;
63312;SDS011;49442;45.640;13.812;2023-05-10T12:15:20;8.50;;;6.97;;
63312;SDS011;49442;45.640;13.812;2023-05-10T12:17:47;8.40;;;6.63;;
63312;SDS011;49442;45.640;13.812;2023-05-10T12:20:20;10.50;;;7.05;;
63312;SDS011;49442;45.640;13.812;2023-05-10T12:22:57;7.55;;;6.70;;
63312;SDS011;49442;45.640;13.812;2023-05-10T12:25:24;7.53;;;6.55;;
63312;SDS011;49442;45.640;13.812;2023-05-10T12:27:56;11.40;;;5.80;;
63312;SDS011;49442;45.640;13.812;2023-05-10T12:30:29;7.45;;;6.63;;
63312;SDS011;49442;45.640;13.812;2023-05-10T12:33:07;8.27;;;6.68;;
63312;SDS011;49442;45.640;13.812;2023-05-10T12:35:43;9.00;;;7.10;;
63312;SDS011;49442;45.640;13.812;2023-05-10T12:38:24;8.85;;;6.35;;
63312;SDS011;49442;45.640;13.812;2023-05-10T12:41:13;6.65;;;6.05;;
63312;SDS011;49442;45.640;13.812;2023-05-10T12:43:40;8.88;;;6.70;;
63312;SDS011;49442;45.640;13.812;2023-05-10T12:46:13;8.20;;;6.40;;
63312;SDS011;49442;45.640;13.812;2023-05-10T12:48:41;7.88;;;6.10;;
63312;SDS011;49442;45.640;13.812;2023-05-10T12:51:08;8.07;;;6.13;;
63312;SDS011;49442;45.640;13.812;2023-05-10T12:53:38;7.15;;;6.45;;
63312;SDS011;49442;45.640;13.812;2023-05-10T12:56:04;9.10;;;6.07;;
63312;SDS011;49442;45.640;13.812;2023-05-10T12:58:30;8.13;;;7.10;;
63312;SDS011;49442;45.640;13.812;2023-05-10T13:00:57;7.95;;;6.80;;
63312;SDS011;49442;45.640;13.812;2023-05-10T13:03:23;7.22;;;6.00;;
63312;SDS011;49442;45.640;13.812;2023-05-10T13:05:49;9.25;;;6.60;;
63312;SDS011;49442;45.640;13.812;2023-05-10T13:08:15;7.65;;;6.68;;
63312;SDS011;49442;45.640;13.812;2023-05-10T13:10:41;7.90;;;6.60;;
63312;SDS011;49442;45.640;13.812;2023-05-10T13:13:06;8.70;;;6.93;;
63312;SDS011;49442;45.640;13.812;2023-05-10T13:15:33;8.80;;;6.47;;
63312;SDS011;49442;45.640;13.812;2023-05-10T13:17:59;11.98;;;6.95;;
63312;SDS011;49442;45.640;13.812;2023-05-10T13:20:25;7.57;;;6.82;;
63312;SDS011;49442;45.640;13.812;2023-05-10T13:22:51;8.55;;;5.97;;
63312;SDS011;49442;45.640;13.812;2023-05-10T13:25:17;8.48;;;6.50;;
63312;SDS011;49442;45.640;13.812;2023-05-10T13:27:42;10.52;;;7.13;;
63312;SDS011;49442;45.640;13.812;2023-05-10T13:30:08;7.35;;;6.57;;
63312;SDS011;49442;45.640;13.812;2023-05-10T13:32:34;7.35;;;6.63;;
63312;SDS011;49442;45.640;13.812;2023-05-10T13:35:01;8.30;;;7.18;;
63312;SDS011;49442;45.640;13.812;2023-05-10T13:37:28;9.73;;;6.80;;
63312;SDS011;49442;45.640;13.812;2023-05-10T13:39:54;7.45;;;6.20;;
63312;SDS011;49442;45.640;13.812;2023-05-10T13:42:21;6.90;;;6.20;;
63312;SDS011;49442;45.640;13.812;2023-05-10T13:44:48;7.03;;;6.35;;
63312;SDS011;49442;45.640;13.812;2023-05-10T13:47:13;8.73;;;6.85;;
63312;SDS011;49442;45.640;13.812;2023-05-10T13:49:39;7.38;;;6.68;;
63312;SDS011;49442;45.640;13.812;2023-05-10T13:52:05;6.88;;;6.22;;
63312;SDS011;49442;45.640;13.812;2023-05-10T13:54:32;9.27;;;6.88;;
63312;SDS011;49442;45.640;13.812;2023-05-10T13:57:01;6.97;;;6.30;;
63312;SDS011;49442;45.640;13.812;2023-05-10T13:59:28;10.65;;;6.70;;
63312;SDS011;49442;45.640;13.812;2023-05-10T14:01:58;7.60;;;6.57;;
63312;SDS011;49442;45.640;13.812;2023-05-10T14:04:24;7.18;;;6.47;;
63312;SDS011;49442;45.640;13.812;2023-05-10T14:06:49;8.80;;;6.97;;
63312;SDS011;49442;45.640;13.812;2023-05-10T14:09:15;10.18;;;8.13;;
63312;SDS011;49442;45.640;13.812;2023-05-10T14:11:41;8.35;;;7.55;;
63312;SDS011;49442;45.640;13.812;2023-05-10T14:14:11;9.35;;;7.72;;
63312;SDS011;49442;45.640;13.812;2023-05-10T14:16:38;8.40;;;7.40;;
63312;SDS011;49442;45.640;13.812;2023-05-10T14:19:07;8.57;;;7.68;;
63312;SDS011;49442;45.640;13.812;2023-05-10T14:21:33;8.75;;;7.85;;
63312;SDS011;49442;45.640;13.812;2023-05-10T14:23:59;11.40;;;9.50;;
63312;SDS011;49442;45.640;13.812;2023-05-10T14:26:25;7.95;;;7.20;;
63312;SDS011;49442;45.640;13.812;2023-05-10T14:28:52;8.88;;;7.88;;
63312;SDS011;49442;45.640;13.812;2023-05-10T14:31:18;21.90;;;13.80;;
63312;SDS011;49442;45.640;13.812;2023-05-10T14:33:45;8.98;;;7.47;;
63312;SDS011;49442;45.640;13.812;2023-05-10T14:36:14;10.32;;;7.82;;
63312;SDS011;49442;45.640;13.812;2023-05-10T14:38:40;8.15;;;7.35;;
63312;SDS011;49442;45.640;13.812;2023-05-10T14:41:06;10.35;;;7.93;;
63312;SDS011;49442;45.640;13.812;2023-05-10T14:43:32;9.15;;;8.25;;
63312;SDS011;49442;45.640;13.812;2023-05-10T14:45:58;9.57;;;7.85;;
63312;SDS011;49442;45.640;13.812;2023-05-10T14:48:23;8.57;;;7.72;;
63312;SDS011;49442;45.640;13.812;2023-05-10T14:50:49;10.25;;;7.63;;
63312;SDS011;49442;45.640;13.812;2023-05-10T14:53:17;9.07;;;8.18;;
63312;SDS011;49442;45.640;13.812;2023-05-10T14:55:43;8.38;;;7.57;;
63312;SDS011;49442;45.640;13.812;2023-05-10T14:58:08;11.63;;;7.90;;
63312;SDS011;49442;45.640;13.812;2023-05-10T15:00:34;8.68;;;7.78;;
63312;SDS011;49442;45.640;13.812;2023-05-10T15:03:00;8.30;;;7.50;;
63312;SDS011;49442;45.640;13.812;2023-05-10T15:05:26;8.45;;;7.50;;
63312;SDS011;49442;45.640;13.812;2023-05-10T15:07:52;9.88;;;7.75;;
63312;SDS011;49442;45.640;13.812;2023-05-10T15:10:17;8.77;;;7.53;;
63312;SDS011;49442;45.640;13.812;2023-05-10T15:12:43;11.43;;;10.32;;
63312;SDS011;49442;45.640;13.812;2023-05-10T15:15:09;8.43;;;7.57;;
63312;SDS011;49442;45.640;13.812;2023-05-10T15:17:35;9.25;;;7.93;;
63312;SDS011;49442;45.640;13.812;2023-05-10T15:20:01;8.65;;;7.70;;